תחנות METAR סמוכות

 

LLBG - Ben-Gurion(Civ/M, Israel
Distance from station: 'מ 83km
עודכן: 15/11/2019 20:50
מעונן חלקית
מעונן חלקית
 רוח מ 'מ
רוח: 'מ 11 km/h
טמפרטורה: 22°C
נקודת הטל: 17°C
לחות: 73%
ברומטר: 1016 hPa
עננים: מעונן חלקית
ראות: 10 km
Cloud details: מעונן חלקית 1067 m
2019/11/15 18:50 LLBG 151850Z 27006KT 9999 SCT035 22/17 Q1016 TEMPO RA
LLSD - Sde Dov Airport, Israel
Distance from station: 'מ 75km
עודכן: 30/06/2019 23:50
לא מעודכן
מעונן חלקית
מעונן חלקית
 רוח מ משתנה
רוח: משתנה 6 km/h
טמפרטורה: 27°C
עומס חום: 30°C
נקודת הטל: 23°C
לחות: 79%
ברומטר: 1007 hPa
עננים: מעונן חלקית
ראות: 10 km
Cloud details: מעונן חלקית 518 m
2019/06/30 20:50 LLSD 302050Z VRB03KT 9999 SCT017 27/23 Q1007
 
LLHA - Haifa (isr-Afb), Israel
Distance from station: 'צמ 129km
עודכן: 15/11/2019 18:50
לא מעודכן
Few Clouds
Few Clouds
 רוח מ 'מ
רוח: 'מ 7 km/h
טמפרטורה: 24°C
נקודת הטל: 17°C
לחות: 65%
ברומטר: 1015 hPa
עננים: Few Clouds
ראות: 10 km
Cloud details: Few Clouds 914 m
2019/11/15 16:50 LLHA 151650Z 28004KT 240V320 9999 FEW030 24/17 Q1015
LLIB - Ben Ya Akov, Israel
Distance from station: 'צמ 183km
עודכן: 15/11/2019 16:50
לא מעודכן
בהיר
בהיר
 רוח מ 'מ
רוח: 'מ 15 km/h
טמפרטורה: 23°C
נקודת הטל: 15°C
לחות: 61%
ברומטר: 1014 hPa
סיכום: בהיר
ראות: greater than 10 km
2019/11/15 14:50 LLIB 151450Z 27008KT 240V300 CAVOK 23/15 Q1014 RMK BKN055
 
LLOV - Ovda (isr-Afb/Ci, Israel
Distance from station: 'דדמ 246km
עודכן: 31/03/2019 22:50
לא מעודכן
בהיר
בהיר
 רוח מ 'מדמ
רוח: 'מדמ 13 km/h
טמפרטורה: 12°C
נקודת הטל: 0°C
לחות: 44%
ברומטר: 1012 hPa
סיכום: בהיר
ראות: greater than 10 km
2019/03/31 19:50 LLOV 311950Z 24007KT CAVOK 12/00 Q1012
LLET - Elat/J. Hozman(A, Israel
Distance from station: 'דדמ 287km
עודכן: 18/03/2019 17:50
לא מעודכן
בהיר
בהיר
 רוח מ 'צצמ
רוח: 'צצמ 30 km/h
טמפרטורה: 24°C
נקודת הטל: -1°C
לחות: 19%
ברומטר: 1016 hPa
סיכום: בהיר
ראות: greater than 10 km
2019/03/18 15:50 LLET 181550Z 02016KT CAVOK 24/M01 Q1016
 
LCLK - Larnaca/Larnax A, Cyprus
Distance from station: 'צ 321km
עודכן: 15/11/2019 21:00
מעונן חלקית
מעונן חלקית
 רוח מ 'צמ
רוח: 'צמ 37 km/h
טמפרטורה: 21°C
נקודת הטל: 18°C
לחות: 83%
ברומטר: 1015 hPa
עננים: מעונן חלקית
ראות: 10 km
Cloud details: Few Clouds 610 m
Few Clouds 1067 m
מעונן חלקית 1219 m
2019/11/15 19:00 LCLK 151900Z 05020KT 9999 FEW020 FEW035CB SCT040 21/18 Q1015 NOSIG